Time;durP1;ratioP1;P1;durP2;ratioP2;P2;SDS_P1;SDS_P2;PMS_P1;PMS_P2;Temp;Humidity;BMP_temperature;BMP_pressure;BME280_temperature;BME280_humidity;BME280_pressure;Samples;Min_cycle;Max_cycle;Signal;HPM_P1;HPM_P2
2024/02/20 00:00:17;;;;;;;13.57;2.97;;;;;;;;;;5039121;28;20104;-72
2024/02/20 00:03:03;;;;;;;15.77;4.03;;;;;;;;;;5061240;28;20059;-72
2024/02/20 00:05:49;;;;;;;25.17;4.93;;;;;;;;;;5037827;28;20056;-72
2024/02/20 00:08:35;;;;;;;26.70;4.95;;;;;;;;;;5043899;28;20029;-72
2024/02/20 00:11:20;;;;;;;18.40;4.40;;;;;;;;;;5054875;28;20029;-72
2024/02/20 00:14:06;;;;;;;15.10;3.38;;;;;;;;;;5045838;28;20021;-72
2024/02/20 00:16:52;;;;;;;17.10;3.53;;;;;;;;;;5055249;28;20409;-72
2024/02/20 00:19:38;;;;;;;9.68;3.60;;;;;;;;;;5038151;28;20406;-71
2024/02/20 00:22:23;;;;;;;8.77;2.92;;;;;;;;;;5073041;28;20074;-72
2024/02/20 00:25:09;;;;;;;16.48;3.38;;;;;;;;;;5059103;28;20027;-71
2024/02/20 00:27:55;;;;;;;18.50;3.38;;;;;;;;;;5043040;28;20376;-72
2024/02/20 00:30:41;;;;;;;17.77;3.58;;;;;;;;;;5053033;28;20020;-72
2024/02/20 00:33:28;;;;;;;17.88;3.30;;;;;;;;;;5037825;28;20091;-72
2024/02/20 00:36:13;;;;;;;20.13;3.65;;;;;;;;;;5038552;28;20036;-72
2024/02/20 00:38:59;;;;;;;26.55;4.75;;;;;;;;;;5054474;28;20498;-72
2024/02/20 00:41:46;;;;;;;6.35;3.13;;;;;;;;;;5054011;28;20032;-72
2024/02/20 00:44:32;;;;;;;23.00;3.65;;;;;;;;;;5038103;28;20451;-72
2024/02/20 00:47:17;;;;;;;19.40;4.68;;;;;;;;;;5040230;28;20021;-72
2024/02/20 00:50:03;;;;;;;21.02;3.40;;;;;;;;;;5052893;28;20024;-72
2024/02/20 00:52:49;;;;;;;28.08;4.38;;;;;;;;;;5040353;28;20496;-72
2024/02/20 00:55:34;;;;;;;29.05;4.35;;;;;;;;;;5052901;28;20505;-72
2024/02/20 00:58:22;;;;;;;30.83;5.57;;;;;;;;;;5053124;28;20028;-72
2024/02/20 01:01:10;;;;;;;29.33;4.47;;;;;;;;;;5052425;28;20482;-72
2024/02/20 01:03:55;;;;;;;19.38;4.97;;;;;;;;;;5038359;28;20040;-71
2024/02/20 01:06:41;;;;;;;25.80;4.82;;;;;;;;;;5037722;28;20028;-71
2024/02/20 01:09:27;;;;;;;32.13;5.70;;;;;;;;;;5053797;28;20051;-72
2024/02/20 01:12:12;;;;;;;34.08;4.93;;;;;;;;;;5039250;28;20077;-71
2024/02/20 01:14:58;;;;;;;27.60;4.47;;;;;;;;;;5040143;28;20079;-71
2024/02/20 01:17:44;;;;;;;38.13;4.65;;;;;;;;;;5038109;28;20387;-72
2024/02/20 01:20:29;;;;;;;28.02;6.20;;;;;;;;;;5052787;28;20028;-72
2024/02/20 01:23:15;;;;;;;30.33;4.63;;;;;;;;;;5053098;28;20103;-72
2024/02/20 01:26:00;;;;;;;34.80;5.72;;;;;;;;;;5039278;28;20025;-72
2024/02/20 01:28:46;;;;;;;29.70;4.55;;;;;;;;;;5053863;28;20032;-72
2024/02/20 01:31:32;;;;;;;30.17;4.28;;;;;;;;;;5052800;28;20029;-72
2024/02/20 01:34:18;;;;;;;32.95;4.25;;;;;;;;;;5053149;28;20021;-72
2024/02/20 01:37:03;;;;;;;28.63;5.03;;;;;;;;;;5053439;28;20052;-72
2024/02/20 01:39:49;;;;;;;23.10;4.82;;;;;;;;;;5038719;28;20078;-72
2024/02/20 01:42:37;;;;;;;39.25;5.80;;;;;;;;;;5054453;28;20444;-72
2024/02/20 01:45:28;;;;;;;28.20;5.60;;;;;;;;;;5058067;28;20029;-72
2024/02/20 01:48:14;;;;;;;26.20;5.15;;;;;;;;;;5044953;28;20120;-72
2024/02/20 01:51:02;;;;;;;24.00;5.63;;;;;;;;;;5058630;28;20409;-72
2024/02/20 01:53:49;;;;;;;20.38;3.85;;;;;;;;;;5058609;28;20406;-72
2024/02/20 01:56:35;;;;;;;28.13;3.53;;;;;;;;;;5057894;28;20375;-72
2024/02/20 01:59:21;;;;;;;25.70;3.67;;;;;;;;;;5044453;28;20027;-72
2024/02/20 02:02:07;;;;;;;32.17;4.50;;;;;;;;;;5043570;28;20029;-72
2024/02/20 02:04:52;;;;;;;18.50;4.20;;;;;;;;;;5045250;28;20159;-72
2024/02/20 02:07:38;;;;;;;22.90;3.78;;;;;;;;;;5045642;28;20108;-72
2024/02/20 02:10:23;;;;;;;23.63;4.40;;;;;;;;;;5059218;28;20383;-72
2024/02/20 02:13:09;;;;;;;25.35;3.70;;;;;;;;;;5045350;28;20017;-72
2024/02/20 02:15:55;;;;;;;25.52;3.47;;;;;;;;;;5045236;28;20017;-72
2024/02/20 02:18:41;;;;;;;26.15;3.88;;;;;;;;;;5043353;28;20478;-72
2024/02/20 02:21:26;;;;;;;23.80;3.97;;;;;;;;;;5045821;28;20130;-72
2024/02/20 02:24:12;;;;;;;20.65;5.53;;;;;;;;;;5029637;28;20044;-72
2024/02/20 02:26:58;;;;;;;17.75;3.53;;;;;;;;;;5043664;28;20104;-72
2024/02/20 02:29:44;;;;;;;25.80;3.55;;;;;;;;;;5059570;28;20390;-72
2024/02/20 02:32:29;;;;;;;17.13;3.60;;;;;;;;;;5045912;28;20029;-72
2024/02/20 02:35:15;;;;;;;22.90;4.53;;;;;;;;;;5044654;28;20033;-72
2024/02/20 02:38:02;;;;;;;19.27;3.22;;;;;;;;;;5043984;28;20449;-72
2024/02/20 02:40:47;;;;;;;22.25;4.13;;;;;;;;;;5030958;28;20410;-72
2024/02/20 02:43:33;;;;;;;30.65;3.90;;;;;;;;;;5044176;28;20482;-72
2024/02/20 02:46:19;;;;;;;23.85;4.65;;;;;;;;;;5044454;28;20100;-72
2024/02/20 02:49:05;;;;;;;21.30;3.88;;;;;;;;;;5059815;28;20013;-72
2024/02/20 02:51:51;;;;;;;16.02;3.88;;;;;;;;;;5057832;28;20025;-72
2024/02/20 02:54:36;;;;;;;22.35;4.10;;;;;;;;;;5055327;28;20025;-72
2024/02/20 02:57:22;;;;;;;37.22;4.38;;;;;;;;;;5056441;28;20095;-72
2024/02/20 03:00:11;;;;;;;28.10;5.03;;;;;;;;;;5040628;28;20072;-72
2024/02/20 03:02:57;;;;;;;34.15;5.13;;;;;;;;;;5053605;28;20041;-72
2024/02/20 03:05:42;;;;;;;21.33;3.50;;;;;;;;;;5053648;28;20043;-72
2024/02/20 03:08:28;;;;;;;30.45;4.38;;;;;;;;;;5041623;28;20052;-72
2024/02/20 03:11:17;;;;;;;39.28;5.50;;;;;;;;;;5041624;28;20112;-72
2024/02/20 03:14:03;;;;;;;35.47;5.32;;;;;;;;;;5041290;28;20389;-72
2024/02/20 03:16:49;;;;;;;25.88;4.45;;;;;;;;;;5039821;28;20021;-72
2024/02/20 03:19:35;;;;;;;32.53;5.00;;;;;;;;;;5055608;28;20021;-72
2024/02/20 03:22:23;;;;;;;40.78;6.38;;;;;;;;;;5054919;28;20040;-72
2024/02/20 03:25:09;;;;;;;48.60;6.25;;;;;;;;;;5041908;28;20394;-72
2024/02/20 03:27:55;;;;;;;42.45;5.85;;;;;;;;;;5039615;28;20482;-72
2024/02/20 03:30:41;;;;;;;32.13;4.72;;;;;;;;;;5055355;28;20059;-72
2024/02/20 03:33:29;;;;;;;24.92;4.55;;;;;;;;;;5049553;28;20089;-72
2024/02/20 03:36:15;;;;;;;27.20;4.20;;;;;;;;;;5042470;28;20448;-72
2024/02/20 03:39:02;;;;;;;37.92;4.72;;;;;;;;;;5053671;28;20061;-72
2024/02/20 03:41:48;;;;;;;36.67;5.78;;;;;;;;;;5074426;28;20020;-72
2024/02/20 03:44:39;;;;;;;25.05;4.18;;;;;;;;;;5055033;28;20029;-72
2024/02/20 03:47:25;;;;;;;31.73;4.68;;;;;;;;;;5040289;28;20032;-72
2024/02/20 03:50:11;;;;;;;43.38;6.45;;;;;;;;;;5040272;28;20122;-72
2024/02/20 03:52:56;;;;;;;28.92;5.10;;;;;;;;;;5039654;28;20108;-72
2024/02/20 03:55:42;;;;;;;30.42;4.85;;;;;;;;;;5059738;28;20489;-72
2024/02/20 03:58:27;;;;;;;31.27;5.05;;;;;;;;;;5057528;28;20440;-72
2024/02/20 04:01:13;;;;;;;34.80;6.05;;;;;;;;;;5054293;28;20051;-72
2024/02/20 04:03:59;;;;;;;54.65;6.43;;;;;;;;;;5054490;28;20021;-72
2024/02/20 04:06:44;;;;;;;43.92;6.53;;;;;;;;;;5053018;28;20021;-72
2024/02/20 04:09:30;;;;;;;39.70;6.18;;;;;;;;;;5053545;28;20021;-72
2024/02/20 04:12:16;;;;;;;39.15;5.43;;;;;;;;;;5028021;28;20028;-72
2024/02/20 04:15:06;;;;;;;53.50;6.50;;;;;;;;;;5054375;28;20490;-72
2024/02/20 04:17:52;;;;;;;41.15;6.45;;;;;;;;;;5040682;28;20036;-72
2024/02/20 04:20:38;;;;;;;35.20;5.90;;;;;;;;;;5054015;28;20029;-72
2024/02/20 04:23:24;;;;;;;41.42;5.15;;;;;;;;;;5061693;28;20024;-72
2024/02/20 04:26:10;;;;;;;36.03;5.35;;;;;;;;;;5057742;28;20060;-72
2024/02/20 04:28:55;;;;;;;22.73;4.38;;;;;;;;;;5054346;28;20133;-72
2024/02/20 04:31:41;;;;;;;53.67;7.63;;;;;;;;;;5049602;28;20100;-72
2024/02/20 04:34:26;;;;;;;58.55;8.50;;;;;;;;;;5049405;28;20494;-72
2024/02/20 04:37:12;;;;;;;39.92;5.30;;;;;;;;;;5039374;28;20025;-72
2024/02/20 04:39:58;;;;;;;28.63;4.90;;;;;;;;;;5070113;28;20020;-72
2024/02/20 04:42:43;;;;;;;38.53;5.65;;;;;;;;;;5057956;28;20021;-72
2024/02/20 04:45:31;;;;;;;32.35;5.65;;;;;;;;;;5051777;28;20112;-72
2024/02/20 04:48:17;;;;;;;37.53;7.10;;;;;;;;;;5051509;28;20108;-72
2024/02/20 04:51:03;;;;;;;32.22;5.05;;;;;;;;;;5064305;28;20570;-72
2024/02/20 04:53:48;;;;;;;37.00;6.25;;;;;;;;;;5058555;28;20499;-71
2024/02/20 04:56:34;;;;;;;29.48;4.88;;;;;;;;;;5036160;28;20025;-72
2024/02/20 04:59:20;;;;;;;32.20;5.32;;;;;;;;;;5024123;28;20033;-72
2024/02/20 05:02:07;;;;;;;42.72;4.75;;;;;;;;;;5053455;28;20039;-72
2024/02/20 05:04:52;;;;;;;27.60;5.75;;;;;;;;;;5037721;28;20029;-72
2024/02/20 05:07:39;;;;;;;54.00;7.07;;;;;;;;;;5026101;28;20404;-72
2024/02/20 05:10:24;;;;;;;42.05;6.65;;;;;;;;;;5069513;28;20031;-72
2024/02/20 05:13:10;;;;;;;36.78;4.97;;;;;;;;;;5071221;28;20055;-72
2024/02/20 05:15:56;;;;;;;29.75;4.47;;;;;;;;;;5044444;28;20020;-72
2024/02/20 05:18:41;;;;;;;52.13;6.57;;;;;;;;;;5058077;28;20020;-72
2024/02/20 05:21:27;;;;;;;37.47;5.07;;;;;;;;;;5053146;28;20040;-72
2024/02/20 05:24:13;;;;;;;22.70;4.32;;;;;;;;;;5083026;23;20036;-72
2024/02/20 05:27:00;;;;;;;22.70;3.88;;;;;;;;;;5063215;28;20043;-72
2024/02/20 05:29:45;;;;;;;35.42;4.40;;;;;;;;;;5073177;28;20029;-72
2024/02/20 05:32:31;;;;;;;31.35;6.55;;;;;;;;;;5070390;28;20032;-72
2024/02/20 05:35:17;;;;;;;34.80;5.20;;;;;;;;;;5051996;28;20107;-72
2024/02/20 05:38:05;;;;;;;31.30;4.35;;;;;;;;;;5069461;28;20032;-73
2024/02/20 05:40:51;;;;;;;28.70;7.68;;;;;;;;;;5067236;28;20094;-72
2024/02/20 05:43:37;;;;;;;35.65;4.75;;;;;;;;;;5071714;28;20028;-72
2024/02/20 05:46:30;;;;;;;22.55;4.78;;;;;;;;;;5041261;28;20024;-72
2024/02/20 05:49:21;;;;;;;23.83;4.35;;;;;;;;;;5068923;28;20017;-72
2024/02/20 05:52:06;;;;;;;40.10;6.07;;;;;;;;;;5056461;28;20027;-72
2024/02/20 05:54:52;;;;;;;41.10;5.15;;;;;;;;;;5071374;28;20401;-72
2024/02/20 05:57:38;;;;;;;25.40;4.50;;;;;;;;;;5071358;28;20025;-72
2024/02/20 06:00:28;;;;;;;28.60;4.57;;;;;;;;;;5057372;28;20025;-72
2024/02/20 06:03:13;;;;;;;26.35;3.80;;;;;;;;;;5072325;28;20028;-72
2024/02/20 06:05:59;;;;;;;16.73;4.32;;;;;;;;;;5071519;28;20498;-72
2024/02/20 06:08:46;;;;;;;29.55;4.53;;;;;;;;;;5057469;28;20494;-72
2024/02/20 06:11:34;;;;;;;43.67;5.32;;;;;;;;;;5057312;28;20077;-72
2024/02/20 06:14:20;;;;;;;26.42;4.05;;;;;;;;;;5039725;28;20024;-72
2024/02/20 06:17:05;;;;;;;26.30;4.88;;;;;;;;;;5043151;28;20021;-72
2024/02/20 06:19:51;;;;;;;19.73;4.32;;;;;;;;;;5056490;28;20040;-72
2024/02/20 06:22:37;;;;;;;20.83;3.83;;;;;;;;;;5057751;28;20032;-72
2024/02/20 06:25:22;;;;;;;27.42;3.80;;;;;;;;;;5056564;28;20055;-72
2024/02/20 06:28:09;;;;;;;22.23;4.05;;;;;;;;;;5056580;28;20036;-72
2024/02/20 06:30:55;;;;;;;22.65;4.68;;;;;;;;;;5060441;28;20020;-72
2024/02/20 06:33:44;;;;;;;24.67;4.05;;;;;;;;;;5063825;28;20036;-72
2024/02/20 06:36:29;;;;;;;29.10;4.63;;;;;;;;;;5044254;28;20024;-72
2024/02/20 06:39:15;;;;;;;27.23;4.20;;;;;;;;;;5027688;28;20028;-72
2024/02/20 06:42:00;;;;;;;31.23;4.22;;;;;;;;;;5058665;28;20032;-72
2024/02/20 06:44:46;;;;;;;31.95;4.15;;;;;;;;;;5059698;28;20027;-72
2024/02/20 06:47:32;;;;;;;31.00;4.75;;;;;;;;;;5056342;28;20044;-72
2024/02/20 06:50:17;;;;;;;26.55;4.30;;;;;;;;;;5041369;28;20017;-72
2024/02/20 06:53:03;;;;;;;20.67;3.97;;;;;;;;;;5053955;28;20406;-72
2024/02/20 06:55:49;;;;;;;26.73;5.00;;;;;;;;;;5073588;28;20024;-72
2024/02/20 06:58:34;;;;;;;31.73;5.57;;;;;;;;;;5059114;28;20028;-72
2024/02/20 07:01:23;;;;;;;26.70;3.97;;;;;;;;;;5039702;28;20067;-72
2024/02/20 07:04:13;;;;;;;27.90;4.40;;;;;;;;;;5058478;28;20028;-72
2024/02/20 07:06:59;;;;;;;21.38;3.17;;;;;;;;;;5060200;28;20466;-72
2024/02/20 07:09:45;;;;;;;19.10;4.50;;;;;;;;;;5044644;28;20024;-72
2024/02/20 07:12:31;;;;;;;22.65;4.35;;;;;;;;;;5040028;28;20028;-72
2024/02/20 07:15:16;;;;;;;17.08;3.90;;;;;;;;;;5071328;28;20112;-72
2024/02/20 07:18:02;;;;;;;26.95;5.38;;;;;;;;;;5059386;28;20060;-72
2024/02/20 07:20:47;;;;;;;30.95;4.10;;;;;;;;;;5073575;28;20031;-72
2024/02/20 07:23:33;;;;;;;24.35;4.53;;;;;;;;;;5046715;28;20076;-72
2024/02/20 07:26:19;;;;;;;39.15;6.03;;;;;;;;;;5042914;28;20103;-72
2024/02/20 07:29:04;;;;;;;25.08;5.20;;;;;;;;;;5040098;28;20490;-72
2024/02/20 07:31:50;;;;;;;41.15;5.72;;;;;;;;;;5057796;28;20020;-72
2024/02/20 07:34:38;;;;;;;41.50;5.63;;;;;;;;;;5048054;28;20089;-72
2024/02/20 07:37:23;;;;;;;35.38;5.50;;;;;;;;;;5039011;28;20036;-72
2024/02/20 07:40:10;;;;;;;24.65;4.75;;;;;;;;;;5053789;28;20164;-72
2024/02/20 07:42:56;;;;;;;22.20;4.13;;;;;;;;;;5059639;28;20527;-72
2024/02/20 07:45:42;;;;;;;31.83;6.15;;;;;;;;;;5066197;28;20504;-72
2024/02/20 07:48:27;;;;;;;37.35;4.82;;;;;;;;;;5074078;28;20029;-72
2024/02/20 07:51:15;;;;;;;17.55;3.58;;;;;;;;;;5059110;28;20035;-72
2024/02/20 07:54:01;;;;;;;22.27;3.92;;;;;;;;;;5045481;28;20107;-72
2024/02/20 07:56:47;;;;;;;25.88;4.55;;;;;;;;;;5025887;28;20033;-72
2024/02/20 07:59:33;;;;;;;18.52;4.38;;;;;;;;;;5028827;28;20013;-72
2024/02/20 08:02:18;;;;;;;30.08;3.95;;;;;;;;;;5043523;28;20406;-72
2024/02/20 08:05:05;;;;;;;37.55;5.10;;;;;;;;;;5038424;28;20107;-72
2024/02/20 08:07:51;;;;;;;30.23;4.38;;;;;;;;;;5052817;28;20425;-72
2024/02/20 08:10:36;;;;;;;32.28;5.13;;;;;;;;;;5053488;28;20024;-72
2024/02/20 08:13:23;;;;;;;29.20;4.55;;;;;;;;;;5046367;28;20032;-72
2024/02/20 08:16:13;;;;;;;36.85;5.65;;;;;;;;;;5038533;28;20025;-72
2024/02/20 08:18:58;;;;;;;36.30;6.13;;;;;;;;;;5058706;28;20110;-71
2024/02/20 08:21:44;;;;;;;30.55;6.90;;;;;;;;;;5053597;28;20064;-72
2024/02/20 08:24:29;;;;;;;27.13;3.88;;;;;;;;;;5060833;28;20024;-71
2024/02/20 08:27:15;;;;;;;37.05;4.72;;;;;;;;;;5045840;28;20035;-71
2024/02/20 08:30:01;;;;;;;30.73;4.50;;;;;;;;;;5051968;28;20379;-72
2024/02/20 08:32:46;;;;;;;26.65;4.13;;;;;;;;;;5044904;28;20427;-72
2024/02/20 08:35:37;;;;;;;24.83;4.45;;;;;;;;;;5039417;28;20021;-71
2024/02/20 08:38:23;;;;;;;25.80;4.95;;;;;;;;;;5043281;28;20095;-72
2024/02/20 08:41:09;;;;;;;29.55;4.68;;;;;;;;;;5038501;28;20059;-71
2024/02/20 08:43:55;;;;;;;15.70;3.40;;;;;;;;;;5041958;28;20102;-71
2024/02/20 08:46:41;;;;;;;38.75;4.97;;;;;;;;;;5052924;28;20036;-72
2024/02/20 08:49:26;;;;;;;17.17;3.80;;;;;;;;;;5037701;28;20028;-72
2024/02/20 08:52:12;;;;;;;26.58;4.13;;;;;;;;;;5051440;28;20024;-72
2024/02/20 08:54:57;;;;;;;28.75;3.75;;;;;;;;;;5053082;28;20449;-72
2024/02/20 08:57:43;;;;;;;35.30;4.82;;;;;;;;;;5057424;28;20063;-71
2024/02/20 09:00:29;;;;;;;19.27;3.25;;;;;;;;;;5048489;28;20028;-71
2024/02/20 09:03:14;;;;;;;24.13;4.20;;;;;;;;;;5056228;28;20028;-70
2024/02/20 09:06:01;;;;;;;27.85;5.15;;;;;;;;;;5045365;28;20059;-71
2024/02/20 09:08:47;;;;;;;21.25;4.03;;;;;;;;;;5037191;28;20017;-71
2024/02/20 09:11:33;;;;;;;29.13;4.20;;;;;;;;;;5045440;28;20449;-71
2024/02/20 09:14:19;;;;;;;30.50;4.72;;;;;;;;;;5052532;28;20074;-70
2024/02/20 09:17:05;;;;;;;36.97;6.22;;;;;;;;;;5058417;28;20036;-71
2024/02/20 09:19:50;;;;;;;30.25;4.13;;;;;;;;;;5023538;28;20025;-71
2024/02/20 09:22:38;;;;;;;18.73;3.72;;;;;;;;;;5069561;22;20044;-71
2024/02/20 09:25:24;;;;;;;28.25;4.07;;;;;;;;;;5078128;28;20025;-71
2024/02/20 09:28:09;;;;;;;28.85;6.20;;;;;;;;;;5083880;28;20021;-71
2024/02/20 09:30:55;;;;;;;27.20;4.50;;;;;;;;;;5090558;28;20028;-71
2024/02/20 09:33:41;;;;;;;29.75;5.28;;;;;;;;;;5055837;28;20021;-70
2024/02/20 09:36:29;;;;;;;20.73;4.10;;;;;;;;;;5072164;28;20021;-70
2024/02/20 09:39:15;;;;;;;20.05;4.10;;;;;;;;;;5071170;28;20023;-71
2024/02/20 09:42:06;;;;;;;31.05;4.55;;;;;;;;;;5070953;28;20563;-71
2024/02/20 09:44:52;;;;;;;22.92;3.75;;;;;;;;;;5057046;28;20071;-72
2024/02/20 09:47:38;;;;;;;28.75;4.60;;;;;;;;;;5053336;28;20389;-71
2024/02/20 09:50:25;;;;;;;36.53;5.30;;;;;;;;;;5070601;28;20036;-72
2024/02/20 09:53:13;;;;;;;31.23;4.82;;;;;;;;;;5052078;28;20028;-72
2024/02/20 09:55:59;;;;;;;21.38;4.35;;;;;;;;;;5031892;28;20033;-72
2024/02/20 09:58:44;;;;;;;31.80;6.35;;;;;;;;;;5039960;28;20027;-71
2024/02/20 10:01:32;;;;;;;24.23;4.65;;;;;;;;;;5032590;28;20060;-72
2024/02/20 10:04:18;;;;;;;38.05;5.10;;;;;;;;;;5006288;28;20410;-72
2024/02/20 10:07:04;;;;;;;24.67;3.83;;;;;;;;;;5036431;28;20159;-72
2024/02/20 10:09:50;;;;;;;43.28;5.68;;;;;;;;;;5036123;28;20028;-72
2024/02/20 10:12:36;;;;;;;29.90;3.67;;;;;;;;;;5051374;28;20025;-72
2024/02/20 10:15:22;;;;;;;35.95;5.28;;;;;;;;;;5022014;28;20044;-71
2024/02/20 10:18:07;;;;;;;28.45;5.35;;;;;;;;;;5036257;28;20025;-72
2024/02/20 10:21:01;;;;;;;22.40;4.70;;;;;;;;;;5054670;28;20111;-72
2024/02/20 10:23:47;;;;;;;28.92;4.85;;;;;;;;;;5054534;28;20091;-71
2024/02/20 10:26:37;;;;;;;24.33;5.25;;;;;;;;;;5028091;28;20064;-72
2024/02/20 10:29:22;;;;;;;36.17;5.03;;;;;;;;;;5041342;28;20526;-72
2024/02/20 10:32:08;;;;;;;30.70;5.30;;;;;;;;;;5043506;28;20103;-71
2024/02/20 10:35:01;;;;;;;28.80;4.65;;;;;;;;;;5073610;22;20525;-72
2024/02/20 10:37:48;;;;;;;34.42;4.50;;;;;;;;;;5047116;28;20031;-73
2024/02/20 10:40:34;;;;;;;28.83;5.53;;;;;;;;;;5071130;28;20123;-73
2024/02/20 10:43:19;;;;;;;22.08;4.60;;;;;;;;;;5073485;28;20048;-72
2024/02/20 10:46:05;;;;;;;29.33;6.45;;;;;;;;;;5054594;28;20032;-73
2024/02/20 10:48:54;;;;;;;21.73;4.97;;;;;;;;;;5060584;28;20112;-73
2024/02/20 10:51:41;;;;;;;26.58;3.70;;;;;;;;;;5054874;28;20513;-73
2024/02/20 10:54:29;;;;;;;39.97;4.78;;;;;;;;;;5040406;28;20032;-73
2024/02/20 10:57:15;;;;;;;31.55;5.78;;;;;;;;;;5042049;28;20036;-73
2024/02/20 11:00:09;;;;;;;34.25;5.45;;;;;;;;;;5060760;28;20021;-73
2024/02/20 11:02:55;;;;;;;30.45;4.50;;;;;;;;;;5057148;28;20032;-73
2024/02/20 11:05:41;;;;;;;38.25;5.13;;;;;;;;;;5051364;28;20036;-73
2024/02/20 11:08:27;;;;;;;33.70;5.25;;;;;;;;;;5054211;28;20017;-73
2024/02/20 11:11:14;;;;;;;24.70;4.50;;;;;;;;;;5066390;28;20078;-73
2024/02/20 11:14:00;;;;;;;22.95;4.43;;;;;;;;;;5067008;28;20028;-72
2024/02/20 11:16:45;;;;;;;24.02;4.03;;;;;;;;;;5055770;28;20056;-73
2024/02/20 11:19:32;;;;;;;34.58;5.00;;;;;;;;;;5054077;28;20154;-72
2024/02/20 11:22:25;;;;;;;29.25;4.43;;;;;;;;;;5053626;28;20021;-73
2024/02/20 11:25:28;;;;;;;26.48;5.35;;;;;;;;;;5054285;28;20053;-72
2024/02/20 11:28:15;;;;;;;29.33;5.60;;;;;;;;;;5053102;28;20086;-73
2024/02/20 11:31:04;;;;;;;26.50;4.82;;;;;;;;;;5039051;28;20053;-73
2024/02/20 11:33:50;;;;;;;34.50;4.72;;;;;;;;;;5032978;28;20029;-72
2024/02/20 11:36:36;;;;;;;33.85;5.55;;;;;;;;;;5053481;28;20508;-73
2024/02/20 11:39:23;;;;;;;29.35;5.00;;;;;;;;;;5053316;28;20399;-73
2024/02/20 11:42:09;;;;;;;23.70;5.53;;;;;;;;;;5054101;28;20024;-73
2024/02/20 11:44:57;;;;;;;28.50;5.53;;;;;;;;;;5062135;28;20029;-73
2024/02/20 11:47:43;;;;;;;25.60;5.97;;;;;;;;;;5059036;28;20086;-73
2024/02/20 11:50:29;;;;;;;31.05;6.10;;;;;;;;;;5051723;28;20083;-73
2024/02/20 11:53:17;;;;;;;36.08;6.07;;;;;;;;;;5059172;28;20016;-72
2024/02/20 11:56:02;;;;;;;31.23;4.70;;;;;;;;;;5051052;28;20028;-73
2024/02/20 11:58:54;;;;;;;31.92;5.20;;;;;;;;;;5058213;28;20501;-73
2024/02/20 12:01:40;;;;;;;30.35;6.07;;;;;;;;;;5038510;28;20029;-73
2024/02/20 12:04:26;;;;;;;22.83;5.35;;;;;;;;;;5038320;28;20028;-73
2024/02/20 12:07:12;;;;;;;28.30;5.25;;;;;;;;;;5026143;28;20035;-73
2024/02/20 12:09:58;;;;;;;17.90;3.90;;;;;;;;;;5051912;28;20050;-73
2024/02/20 12:12:44;;;;;;;30.30;5.82;;;;;;;;;;5060370;28;20402;-73
2024/02/20 12:15:36;;;;;;;35.63;5.82;;;;;;;;;;5058099;28;20028;-73
2024/02/20 12:18:26;;;;;;;28.50;6.43;;;;;;;;;;5050013;28;20498;-72
2024/02/20 12:21:12;;;;;;;30.13;7.65;;;;;;;;;;5058820;28;20103;-72
2024/02/20 12:23:59;;;;;;;31.20;6.18;;;;;;;;;;5070712;28;20041;-73
2024/02/20 12:26:44;;;;;;;35.30;5.00;;;;;;;;;;5053963;28;20028;-73
2024/02/20 12:29:30;;;;;;;20.38;4.13;;;;;;;;;;5057082;28;20086;-72
2024/02/20 12:32:15;;;;;;;47.10;5.80;;;;;;;;;;5041163;28;20482;-72
2024/02/20 12:35:01;;;;;;;30.20;5.47;;;;;;;;;;5032641;28;20453;-72
2024/02/20 12:37:47;;;;;;;21.38;4.78;;;;;;;;;;5019217;28;20511;-72
2024/02/20 12:40:33;;;;;;;22.15;4.70;;;;;;;;;;5056169;28;20028;-70
2024/02/20 12:43:19;;;;;;;20.65;4.30;;;;;;;;;;5051224;28;20060;-70
2024/02/20 12:46:05;;;;;;;35.03;5.00;;;;;;;;;;5033433;28;20044;-71
2024/02/20 12:48:52;;;;;;;30.20;5.75;;;;;;;;;;5036538;28;20020;-71
2024/02/20 12:51:38;;;;;;;23.45;5.05;;;;;;;;;;5037497;28;20078;-70
2024/02/20 12:54:24;;;;;;;21.05;4.95;;;;;;;;;;5051267;28;20023;-70
2024/02/20 12:57:09;;;;;;;22.13;3.75;;;;;;;;;;5062383;28;20020;-71
2024/02/20 12:59:55;;;;;;;35.88;5.88;;;;;;;;;;5070741;28;20025;-71
2024/02/20 13:02:40;;;;;;;30.98;6.07;;;;;;;;;;5060288;28;20021;-70
2024/02/20 13:05:27;;;;;;;28.45;5.32;;;;;;;;;;5031845;28;20026;-71
2024/02/20 13:08:13;;;;;;;32.63;4.25;;;;;;;;;;5043404;28;20441;-70
2024/02/20 13:10:59;;;;;;;28.67;5.10;;;;;;;;;;5051153;28;20029;-71
2024/02/20 13:13:45;;;;;;;33.78;6.88;;;;;;;;;;5050975;28;20036;-71
2024/02/20 13:16:31;;;;;;;23.85;4.88;;;;;;;;;;5050226;28;20490;-71
2024/02/20 13:19:17;;;;;;;32.13;5.75;;;;;;;;;;5050985;28;20052;-71
2024/02/20 13:22:02;;;;;;;24.23;4.95;;;;;;;;;;5033012;28;20029;-70
2024/02/20 13:24:48;;;;;;;27.17;5.32;;;;;;;;;;5016236;28;20053;-71
2024/02/20 13:27:34;;;;;;;22.55;4.70;;;;;;;;;;5064063;28;20028;-71
2024/02/20 13:30:19;;;;;;;29.90;5.63;;;;;;;;;;5070872;28;20024;-71
2024/02/20 13:33:05;;;;;;;30.52;4.82;;;;;;;;;;5047557;28;20029;-70
2024/02/20 13:35:51;;;;;;;28.92;5.80;;;;;;;;;;5054709;28;20032;-71
2024/02/20 13:38:40;;;;;;;23.13;5.53;;;;;;;;;;5069659;28;20021;-71
2024/02/20 13:41:28;;;;;;;42.10;4.85;;;;;;;;;;5064547;28;20572;-71
2024/02/20 13:44:13;;;;;;;40.20;6.13;;;;;;;;;;5050386;28;20036;-71
2024/02/20 13:46:59;;;;;;;38.88;6.13;;;;;;;;;;5053235;28;20060;-70
2024/02/20 13:49:45;;;;;;;35.05;5.80;;;;;;;;;;5051447;28;20029;-71
2024/02/20 13:52:30;;;;;;;29.17;5.55;;;;;;;;;;5051441;28;20029;-70
2024/02/20 13:55:16;;;;;;;36.47;6.00;;;;;;;;;;5052880;28;20525;-70
2024/02/20 13:58:02;;;;;;;24.30;5.43;;;;;;;;;;5051008;28;20401;-70
2024/02/20 14:00:47;;;;;;;36.45;5.07;;;;;;;;;;5051936;28;20032;-70
2024/02/20 14:03:33;;;;;;;29.40;5.88;;;;;;;;;;5050706;28;20376;-70
2024/02/20 14:06:18;;;;;;;40.38;5.75;;;;;;;;;;5050303;28;20476;-70
2024/02/20 14:09:05;;;;;;;33.03;6.18;;;;;;;;;;5049318;28;20029;-70
2024/02/20 14:11:51;;;;;;;46.40;6.57;;;;;;;;;;5016067;28;20037;-69
2024/02/20 14:14:37;;;;;;;27.23;5.65;;;;;;;;;;5044884;28;20033;-72
2024/02/20 14:17:22;;;;;;;31.38;7.22;;;;;;;;;;5043502;28;20025;-70
2024/02/20 14:20:08;;;;;;;36.67;7.15;;;;;;;;;;5033218;28;20529;-70
2024/02/20 14:22:54;;;;;;;31.58;5.53;;;;;;;;;;5043558;28;20095;-69
2024/02/20 14:25:41;;;;;;;39.90;7.75;;;;;;;;;;5040891;28;20398;-70
2024/02/20 14:28:27;;;;;;;37.55;7.63;;;;;;;;;;5031604;28;20383;-71
2024/02/20 14:31:14;;;;;;;41.20;7.28;;;;;;;;;;5040841;28;20025;-70
2024/02/20 14:33:59;;;;;;;39.45;8.20;;;;;;;;;;5040914;28;20029;-71
2024/02/20 14:36:45;;;;;;;36.05;9.35;;;;;;;;;;5047678;28;20383;-71
2024/02/20 14:39:30;;;;;;;31.40;6.45;;;;;;;;;;5042150;28;20084;-70
2024/02/20 14:42:16;;;;;;;29.75;7.72;;;;;;;;;;5039088;28;20097;-69
2024/02/20 14:45:03;;;;;;;48.85;9.25;;;;;;;;;;5039621;28;20494;-70
2024/02/20 14:47:51;;;;;;;34.90;7.95;;;;;;;;;;5041895;28;20027;-69
2024/02/20 14:50:37;;;;;;;30.63;7.57;;;;;;;;;;5046965;28;20072;-70
2024/02/20 14:53:23;;;;;;;35.35;7.78;;;;;;;;;;5051668;28;20021;-72
2024/02/20 14:56:13;;;;;;;39.03;8.02;;;;;;;;;;5048622;28;20083;-68
2024/02/20 14:58:58;;;;;;;36.90;8.35;;;;;;;;;;5014695;28;20040;-70
2024/02/20 15:01:44;;;;;;;28.90;9.18;;;;;;;;;;5031090;28;20029;-70
2024/02/20 15:04:30;;;;;;;40.60;6.70;;;;;;;;;;5043428;28;20025;-70
2024/02/20 15:07:17;;;;;;;43.67;9.48;;;;;;;;;;5040742;28;20398;-70
2024/02/20 15:10:08;;;;;;;39.30;7.50;;;;;;;;;;5044578;28;20070;-70
2024/02/20 15:12:53;;;;;;;33.80;8.57;;;;;;;;;;5046246;28;20083;-70
2024/02/20 15:15:40;;;;;;;35.05;7.53;;;;;;;;;;5042832;28;20103;-69
2024/02/20 15:18:28;;;;;;;39.65;8.50;;;;;;;;;;5046361;28;20025;-69
2024/02/20 15:21:14;;;;;;;37.83;8.82;;;;;;;;;;5040994;28;20041;-70
2024/02/20 15:24:00;;;;;;;41.17;9.43;;;;;;;;;;5049183;28;20027;-70
2024/02/20 15:26:45;;;;;;;33.38;7.40;;;;;;;;;;5046267;28;20027;-69
2024/02/20 15:29:31;;;;;;;44.28;9.18;;;;;;;;;;5041018;28;20017;-70
2024/02/20 15:32:17;;;;;;;40.95;8.77;;;;;;;;;;5049677;28;20025;-70
2024/02/20 15:35:05;;;;;;;33.85;6.78;;;;;;;;;;5045492;28;20052;-69
2024/02/20 15:37:51;;;;;;;44.20;9.15;;;;;;;;;;5048394;28;20029;-70
2024/02/20 15:40:41;;;;;;;36.08;7.97;;;;;;;;;;5048138;28;20028;-70
2024/02/20 15:43:26;;;;;;;39.08;7.40;;;;;;;;;;5053530;28;20045;-70
2024/02/20 15:46:16;;;;;;;39.88;9.05;;;;;;;;;;5037456;28;20021;-70
2024/02/20 15:49:01;;;;;;;26.92;7.22;;;;;;;;;;5053641;28;20029;-70
2024/02/20 15:51:47;;;;;;;41.63;10.75;;;;;;;;;;5053997;28;20017;-70
2024/02/20 15:54:33;;;;;;;44.03;9.68;;;;;;;;;;5053017;28;20017;-69
2024/02/20 15:57:19;;;;;;;25.92;7.03;;;;;;;;;;5054115;28;20118;-70
2024/02/20 16:00:05;;;;;;;35.25;7.63;;;;;;;;;;5053387;28;20517;-70
2024/02/20 16:02:51;;;;;;;32.15;8.48;;;;;;;;;;5051123;28;20090;-70
2024/02/20 16:05:37;;;;;;;43.15;7.75;;;;;;;;;;5053139;28;20024;-70
2024/02/20 16:08:23;;;;;;;49.28;10.25;;;;;;;;;;5053357;28;20078;-70
2024/02/20 16:11:09;;;;;;;38.08;9.15;;;;;;;;;;5052914;28;20490;-70
2024/02/20 16:13:54;;;;;;;39.67;8.27;;;;;;;;;;5053347;28;20024;-69
2024/02/20 16:16:40;;;;;;;26.98;8.00;;;;;;;;;;5043633;28;20013;-70
2024/02/20 16:19:25;;;;;;;26.98;7.25;;;;;;;;;;5053138;28;20052;-70
2024/02/20 16:22:12;;;;;;;33.55;7.45;;;;;;;;;;5053569;28;20025;-70